Pittston Township, Pennsylvania
Current Conditions -  °F | °C
As of 3:54 PM on Sunday 23 Nov 2014 (Local Time) from KAVP Reporting Station
Clear Clear  
Wind Chill: 53°   Ceiling: Unl
Heat Index: 53°   Visibility: 10mi
Dew Point: 24°   Wind: 0mph
Humidity: 32%   Direction: NA
Pressure: 30.06"   Gusts: NA
Location:  41.2973°N, 75.7399°W
Report Text: KAVP 232054Z 00000KT 10SM CLR 12/M04 A3006 RMK AO2 SLP179 T01171044 57013
Loading
Personal Weather Stations






























Interactive Weather Map New forecast layout! Learn more

10-Day Weather Forecast

Advertisements
Track Severe Weather on mobile